createdAt,value
2022-09-19T00:01:53.636Z,4.50
2022-09-19T00:04:25.237Z,5.18
2022-09-19T00:06:54.905Z,4.88
2022-09-19T00:09:25.938Z,5.10
2022-09-19T00:11:55.023Z,4.80
2022-09-19T00:14:25.278Z,4.72
2022-09-19T00:16:57.730Z,4.60
2022-09-19T00:19:27.638Z,4.18
2022-09-19T00:21:57.141Z,4.57
2022-09-19T00:24:43.186Z,5.07
2022-09-19T00:27:12.385Z,4.10
2022-09-19T00:29:42.376Z,4.15
2022-09-19T00:32:13.647Z,4.22
2022-09-19T00:34:45.000Z,4.20
2022-09-19T00:37:15.732Z,4.80
2022-09-19T00:39:44.112Z,4.25
2022-09-19T00:42:16.769Z,4.45
2022-09-19T00:45:02.958Z,3.95
2022-09-19T00:47:36.599Z,4.38
2022-09-19T00:50:13.324Z,4.32
2022-09-19T00:52:46.309Z,3.85
2022-09-19T00:55:14.998Z,4.22
2022-09-19T00:57:53.520Z,3.95
2022-09-19T01:00:22.104Z,3.70
2022-09-19T01:02:52.772Z,3.78
2022-09-19T01:05:29.331Z,3.60
2022-09-19T01:08:16.721Z,4.20
2022-09-19T01:10:58.870Z,3.80
2022-09-19T01:13:32.236Z,3.72
2022-09-19T01:16:04.782Z,3.72
2022-09-19T01:18:36.990Z,4.15
2022-09-19T01:21:42.226Z,3.42
2022-09-19T01:24:50.642Z,3.28
2022-09-19T01:28:07.886Z,3.40
2022-09-19T01:30:36.866Z,3.20
2022-09-19T01:33:08.236Z,3.47
2022-09-19T01:35:39.539Z,3.30
2022-09-19T01:38:11.126Z,3.50
2022-09-19T01:40:39.654Z,3.17
2022-09-19T01:43:13.839Z,2.80
2022-09-19T01:45:42.700Z,3.10
2022-09-19T01:48:17.306Z,3.08
2022-09-19T01:51:05.950Z,3.25
2022-09-19T01:53:46.898Z,3.05
2022-09-19T01:56:22.288Z,2.83
2022-09-19T01:58:55.951Z,3.00
2022-09-19T02:01:29.360Z,3.15
2022-09-19T02:04:02.334Z,3.03
2022-09-19T02:06:43.644Z,2.88
2022-09-19T02:09:18.390Z,2.83
2022-09-19T02:11:46.777Z,2.50
2022-09-19T02:14:19.279Z,3.30
2022-09-19T02:16:52.248Z,2.90
2022-09-19T02:19:23.148Z,2.90
2022-09-19T02:21:55.213Z,2.88
2022-09-19T02:24:28.493Z,2.67
2022-09-19T02:26:58.580Z,2.67
2022-09-19T02:29:31.374Z,3.00
2022-09-19T02:32:00.620Z,2.65
2022-09-19T02:34:29.127Z,2.60
2022-09-19T02:37:02.298Z,2.55
2022-09-19T02:39:33.108Z,2.70
2022-09-19T02:42:04.819Z,2.60
2022-09-19T02:44:37.886Z,2.75
2022-09-19T02:47:11.461Z,2.90
2022-09-19T02:49:41.791Z,2.75
2022-09-19T02:52:14.787Z,2.45
2022-09-19T02:54:44.004Z,2.80
2022-09-19T02:57:14.907Z,2.70
2022-09-19T02:59:46.155Z,2.20
2022-09-19T03:02:18.377Z,2.13
2022-09-19T03:04:49.311Z,2.70
2022-09-19T03:07:20.421Z,2.65
2022-09-19T03:09:54.717Z,2.38
2022-09-19T03:12:26.649Z,2.65
2022-09-19T03:14:59.807Z,2.75
2022-09-19T03:17:32.411Z,2.75
2022-09-19T03:20:00.831Z,2.40
2022-09-19T03:22:30.357Z,2.70
2022-09-19T03:25:02.817Z,2.47
2022-09-19T03:27:31.394Z,2.60
2022-09-19T03:30:01.117Z,2.40
2022-09-19T03:32:29.988Z,2.83
2022-09-19T03:34:58.379Z,2.50
2022-09-19T03:37:26.899Z,2.63
2022-09-19T03:39:55.364Z,2.60
2022-09-19T03:42:23.799Z,2.67
2022-09-19T03:44:52.388Z,2.70
2022-09-19T03:47:22.307Z,2.70
2022-09-19T03:49:51.919Z,2.25
2022-09-19T03:52:20.477Z,2.72
2022-09-19T03:54:49.284Z,2.45
2022-09-19T03:57:17.803Z,2.60
2022-09-19T03:59:46.755Z,2.90
2022-09-19T04:02:15.184Z,2.60
2022-09-19T04:04:45.082Z,2.58
2022-09-19T04:07:13.633Z,2.40
2022-09-19T04:09:42.037Z,2.28
2022-09-19T04:12:10.603Z,2.55
2022-09-19T04:14:39.396Z,2.25
2022-09-19T04:17:24.675Z,2.40
2022-09-19T04:19:54.501Z,2.58
2022-09-19T04:22:23.189Z,2.47
2022-09-19T04:24:53.193Z,2.45
2022-09-19T04:27:21.821Z,2.45
2022-09-19T04:29:50.382Z,2.50
2022-09-19T04:32:18.872Z,2.30
2022-09-19T04:34:48.410Z,2.05
2022-09-19T04:37:18.403Z,2.40
2022-09-19T04:39:49.841Z,2.20
2022-09-19T04:42:18.277Z,2.28
2022-09-19T04:44:46.718Z,2.80
2022-09-19T04:47:15.612Z,3.83
2022-09-19T04:49:44.069Z,3.05
2022-09-19T04:52:13.752Z,3.03
2022-09-19T04:54:43.993Z,2.78
2022-09-19T04:57:12.485Z,2.90
2022-09-19T04:59:40.959Z,2.53
2022-09-19T05:02:09.835Z,2.50
2022-09-19T05:04:39.593Z,2.40
2022-09-19T05:07:09.871Z,2.30
2022-09-19T05:09:38.352Z,2.67
2022-09-19T05:12:10.603Z,2.00
2022-09-19T05:14:39.014Z,2.25
2022-09-19T05:17:07.504Z,2.70
2022-09-19T05:19:37.316Z,2.45
2022-09-19T05:22:06.005Z,2.22
2022-09-19T05:24:36.105Z,2.60
2022-09-19T05:27:05.017Z,2.15
2022-09-19T05:29:37.402Z,2.42
2022-09-19T05:32:06.486Z,2.42
2022-09-19T05:34:35.158Z,2.20
2022-09-19T05:37:03.565Z,2.70
2022-09-19T05:39:32.011Z,2.15
2022-09-19T05:42:01.862Z,2.20
2022-09-19T05:44:30.408Z,2.50
2022-09-19T05:47:00.302Z,2.53
2022-09-19T05:49:28.821Z,2.33
2022-09-19T05:51:57.693Z,2.30
2022-09-19T05:54:25.193Z,2.40
2022-09-19T05:56:54.926Z,2.38
2022-09-19T05:59:23.443Z,2.15
2022-09-19T06:01:52.361Z,2.92
2022-09-19T06:04:22.574Z,2.05
2022-09-19T06:06:50.955Z,2.63
2022-09-19T06:09:19.447Z,2.22
2022-09-19T06:11:47.863Z,2.15
2022-09-19T06:14:16.415Z,2.10
2022-09-19T06:16:44.982Z,2.20
2022-09-19T06:19:13.581Z,2.10
2022-09-19T06:21:46.353Z,2.08
2022-09-19T06:24:14.835Z,2.08
2022-09-19T06:26:43.314Z,2.00
2022-09-19T06:29:11.943Z,2.03
2022-09-19T06:31:41.563Z,2.22
2022-09-19T06:34:10.051Z,2.30
2022-09-19T06:36:38.946Z,2.55
2022-09-19T06:39:08.690Z,2.17
2022-09-19T06:41:37.424Z,2.08
2022-09-19T06:44:06.694Z,2.10
2022-09-19T06:46:38.413Z,2.10
2022-09-19T06:49:08.394Z,2.33
2022-09-19T06:51:36.862Z,1.90
2022-09-19T06:54:05.709Z,2.10
2022-09-19T06:56:35.633Z,2.00
2022-09-19T06:59:05.076Z,2.38
2022-09-19T07:01:34.423Z,2.20
2022-09-19T07:04:03.308Z,2.10
2022-09-19T07:06:35.768Z,2.20
2022-09-19T07:09:04.388Z,2.10
2022-09-19T07:11:33.169Z,2.50
2022-09-19T07:14:03.719Z,2.15
2022-09-19T07:16:32.233Z,2.40
2022-09-19T07:19:02.379Z,2.38
2022-09-19T07:21:30.902Z,2.08
2022-09-19T07:24:02.623Z,2.10
2022-09-19T07:26:31.302Z,2.30
2022-09-19T07:28:59.684Z,2.13
2022-09-19T07:31:30.269Z,2.30
2022-09-19T07:34:01.986Z,2.30
2022-09-19T07:36:35.709Z,2.30
2022-09-19T07:39:04.388Z,2.20
2022-09-19T07:41:32.950Z,2.03
2022-09-19T07:44:01.411Z,1.90
2022-09-19T07:46:31.246Z,2.28
2022-09-19T07:48:59.709Z,2.10
2022-09-19T07:51:30.222Z,2.10
2022-09-19T07:53:58.945Z,2.47
2022-09-19T07:56:27.405Z,2.20
2022-09-19T07:58:55.974Z,1.98
2022-09-19T08:01:24.480Z,2.08
2022-09-19T08:03:54.932Z,2.00
2022-09-19T08:06:23.356Z,2.00
2022-09-19T08:08:51.797Z,2.08
2022-09-19T08:11:21.152Z,1.77
2022-09-19T08:13:49.584Z,1.70
2022-09-19T08:16:18.477Z,1.92
2022-09-19T08:18:47.277Z,2.00
2022-09-19T08:21:17.055Z,2.30
2022-09-19T08:23:45.581Z,1.88
2022-09-19T08:26:14.127Z,1.90
2022-09-19T08:28:42.813Z,1.77
2022-09-19T08:31:11.403Z,2.00
2022-09-19T08:33:40.151Z,1.98
2022-09-19T08:36:10.354Z,2.00
2022-09-19T08:38:40.251Z,2.00
2022-09-19T08:41:25.999Z,1.80
2022-09-19T08:43:57.632Z,1.92
2022-09-19T08:46:29.893Z,1.70
2022-09-19T08:49:00.098Z,1.90
2022-09-19T08:51:32.479Z,1.90
2022-09-19T08:54:11.759Z,1.88
2022-09-19T08:56:40.406Z,1.75
2022-09-19T08:59:12.779Z,1.98
2022-09-19T09:01:41.273Z,1.70
2022-09-19T09:04:23.534Z,1.83
2022-09-19T09:07:14.994Z,1.60
2022-09-19T09:09:59.928Z,1.88
2022-09-19T09:12:33.836Z,1.83
2022-09-19T09:15:19.839Z,1.90
2022-09-19T09:18:01.609Z,1.90
2022-09-19T09:20:40.391Z,1.90
2022-09-19T09:23:12.763Z,2.10
2022-09-19T09:25:51.869Z,2.30
2022-09-19T09:28:28.323Z,2.03
2022-09-19T09:31:03.571Z,2.03
2022-09-19T09:33:34.812Z,2.30
2022-09-19T09:36:07.526Z,2.30
2022-09-19T09:38:38.274Z,2.15
2022-09-19T09:41:30.392Z,2.40
2022-09-19T09:44:06.991Z,1.92
2022-09-19T09:46:50.515Z,2.10
2022-09-19T09:49:20.001Z,1.85
2022-09-19T09:51:54.949Z,2.25
2022-09-19T09:54:52.861Z,2.17
2022-09-19T09:57:32.306Z,2.25
2022-09-19T10:00:20.063Z,2.10
2022-09-19T10:03:10.447Z,2.03
2022-09-19T10:05:41.461Z,2.10
2022-09-19T10:08:19.861Z,1.90
2022-09-19T10:10:48.939Z,2.13
2022-09-19T10:13:26.688Z,1.98
2022-09-19T10:15:57.565Z,2.00
2022-09-19T10:18:29.059Z,1.80
2022-09-19T10:20:58.128Z,2.10
2022-09-19T10:23:34.260Z,2.35
2022-09-19T10:26:04.395Z,1.92
2022-09-19T10:28:38.562Z,2.10
2022-09-19T10:31:24.647Z,2.33
2022-09-19T10:33:53.809Z,2.05
2022-09-19T10:36:26.466Z,1.90
2022-09-19T10:38:59.820Z,1.80
2022-09-19T10:41:29.832Z,2.10
2022-09-19T10:44:00.444Z,1.95
2022-09-19T10:46:36.787Z,2.20
2022-09-19T10:49:08.614Z,2.08
2022-09-19T10:51:39.700Z,2.13
2022-09-19T10:54:13.069Z,1.70
2022-09-19T10:56:42.331Z,2.00
2022-09-19T10:59:27.290Z,1.80
2022-09-19T11:02:21.475Z,2.00
2022-09-19T11:05:02.176Z,1.75
2022-09-19T11:07:32.314Z,1.63
2022-09-19T11:10:11.166Z,1.85
2022-09-19T11:12:42.287Z,1.70
2022-09-19T11:15:17.673Z,2.00
2022-09-19T11:17:59.052Z,1.70
2022-09-19T11:20:41.262Z,1.90
2022-09-19T11:23:41.260Z,2.15
2022-09-19T11:26:21.928Z,1.98
2022-09-19T11:29:00.332Z,1.85
2022-09-19T11:34:50.915Z,1.90
2022-09-19T11:37:33.776Z,2.05
2022-09-19T11:40:16.810Z,1.70
2022-09-19T11:42:50.396Z,1.80
2022-09-19T11:45:20.815Z,2.00
2022-09-19T11:48:15.124Z,1.80
2022-09-19T11:50:58.117Z,1.67
2022-09-19T11:53:36.868Z,1.70
2022-09-19T11:56:16.093Z,2.03
2022-09-19T11:58:53.128Z,2.00
2022-09-19T12:01:36.820Z,2.10
2022-09-19T12:04:21.567Z,1.80
2022-09-19T12:07:18.081Z,1.90
2022-09-19T12:09:50.757Z,1.60
2022-09-19T12:12:21.743Z,1.67
2022-09-19T12:14:52.953Z,1.90
2022-09-19T12:17:27.282Z,1.60
2022-09-19T12:20:02.775Z,1.60
2022-09-19T12:22:32.554Z,1.70
2022-09-19T12:25:07.115Z,1.92
2022-09-19T12:27:38.488Z,1.70
2022-09-19T12:30:09.827Z,1.90
2022-09-19T12:32:44.902Z,1.70
2022-09-19T12:35:22.675Z,1.90
2022-09-19T12:38:04.582Z,1.70
2022-09-19T12:40:42.309Z,1.67
2022-09-19T12:43:17.578Z,1.50
2022-09-19T12:45:48.447Z,1.70
2022-09-19T12:48:24.563Z,1.38
2022-09-19T12:50:55.060Z,2.10
2022-09-19T12:53:36.059Z,1.77
2022-09-19T12:56:08.024Z,1.60
2022-09-19T12:58:49.351Z,1.63
2022-09-19T13:01:22.339Z,1.75
2022-09-19T13:03:55.441Z,1.70
2022-09-19T13:06:26.896Z,1.80
2022-09-19T13:08:59.276Z,1.92
2022-09-19T13:11:31.007Z,1.90
2022-09-19T13:14:02.117Z,1.77
2022-09-19T13:16:32.713Z,1.45
2022-09-19T13:19:18.830Z,1.55
2022-09-19T13:22:07.567Z,1.88
2022-09-19T13:24:56.093Z,1.73
2022-09-19T13:27:26.618Z,1.70
2022-09-19T13:29:58.569Z,1.80
2022-09-19T13:32:53.642Z,1.63
2022-09-19T13:35:23.801Z,1.63
2022-09-19T13:38:01.592Z,1.63
2022-09-19T13:40:43.225Z,1.52
2022-09-19T13:43:31.684Z,1.83
2022-09-19T13:46:09.884Z,1.65
2022-09-19T13:48:46.307Z,1.55
2022-09-19T13:51:33.248Z,2.00
2022-09-19T13:54:45.315Z,1.70
2022-09-19T13:57:18.367Z,1.70
2022-09-19T13:59:52.680Z,1.90
2022-09-19T14:02:25.335Z,1.70
2022-09-19T14:05:02.349Z,1.50
2022-09-19T14:10:28.741Z,1.70
2022-09-19T14:13:02.487Z,1.60
2022-09-19T14:16:07.639Z,1.80
2022-09-19T14:19:03.061Z,1.77
2022-09-19T14:21:58.380Z,1.58
2022-09-19T14:24:49.962Z,1.67
2022-09-19T14:28:03.266Z,1.92
2022-09-19T14:31:07.882Z,12.82
2022-09-19T14:34:21.199Z,19.83
2022-09-19T14:37:24.581Z,16.00
2022-09-19T14:40:25.814Z,13.80
2022-09-19T14:43:11.380Z,11.70
2022-09-19T14:45:52.809Z,10.93
2022-09-19T14:48:35.893Z,10.77
2022-09-19T14:51:28.026Z,9.38
2022-09-19T14:54:00.029Z,8.30
2022-09-19T14:56:28.459Z,7.97
2022-09-19T14:59:01.912Z,7.80
2022-09-19T15:01:33.441Z,7.57
2022-09-19T15:04:04.056Z,8.05
2022-09-19T15:06:34.778Z,7.82
2022-09-19T15:09:03.789Z,7.53
2022-09-19T15:11:33.351Z,7.35
2022-09-19T15:14:06.892Z,7.45
2022-09-19T15:16:35.405Z,7.15
2022-09-19T15:19:04.057Z,7.20
2022-09-19T15:21:35.365Z,6.07
2022-09-19T15:24:07.102Z,6.03
2022-09-19T15:26:43.018Z,6.63
2022-09-19T15:29:38.100Z,6.55
2022-09-19T15:32:23.572Z,7.18
2022-09-19T15:34:54.149Z,6.32
2022-09-19T15:37:22.790Z,6.18
2022-09-19T15:39:51.821Z,6.15
2022-09-19T15:42:20.195Z,6.10
2022-09-19T15:44:49.955Z,5.63
2022-09-19T15:47:20.026Z,5.55
2022-09-19T15:49:50.662Z,5.70
2022-09-19T15:52:31.106Z,5.55
2022-09-19T15:55:00.032Z,5.47
2022-09-19T15:57:33.120Z,5.30
2022-09-19T16:00:07.635Z,6.10
2022-09-19T16:02:40.091Z,5.40
2022-09-19T16:05:17.602Z,5.32
2022-09-19T16:08:08.660Z,5.43
2022-09-19T16:10:53.582Z,5.07
2022-09-19T16:13:37.244Z,5.47
2022-09-19T16:16:27.716Z,6.05
2022-09-19T16:18:56.771Z,4.97
2022-09-19T16:21:29.424Z,5.40
2022-09-19T16:23:57.887Z,5.45
2022-09-19T16:26:31.181Z,4.95
2022-09-19T16:28:59.655Z,5.22
2022-09-19T16:31:33.801Z,4.93
2022-09-19T16:34:07.609Z,5.03
2022-09-19T16:36:43.024Z,11.55
2022-09-19T16:39:28.754Z,9.73
2022-09-19T16:42:07.911Z,10.02
2022-09-19T16:44:42.347Z,9.45
2022-09-19T16:47:20.297Z,7.85
2022-09-19T16:49:49.300Z,8.38
2022-09-19T16:52:27.964Z,8.15
2022-09-19T16:54:57.453Z,8.20
2022-09-19T16:57:26.281Z,7.80
2022-09-19T16:59:55.940Z,7.28
2022-09-19T17:02:27.143Z,6.80
2022-09-19T17:04:56.096Z,7.07
2022-09-19T17:07:25.255Z,6.85
2022-09-19T17:09:54.026Z,6.60
2022-09-19T17:12:23.649Z,6.55
2022-09-19T17:14:52.121Z,6.18
2022-09-19T17:17:21.499Z,6.68
2022-09-19T17:19:51.286Z,5.90
2022-09-19T17:22:20.663Z,5.93
2022-09-19T17:24:49.097Z,6.28
2022-09-19T17:27:17.587Z,5.90
2022-09-19T17:29:46.063Z,5.97
2022-09-19T17:32:14.602Z,5.50
2022-09-19T17:34:43.004Z,5.72
2022-09-19T17:37:12.797Z,5.20
2022-09-19T17:39:41.292Z,5.28
2022-09-19T17:42:14.038Z,5.30
2022-09-19T17:44:44.287Z,4.55
2022-09-19T17:47:33.822Z,5.50
2022-09-19T17:50:01.445Z,4.70
2022-09-19T17:52:31.443Z,4.38
2022-09-19T17:54:59.917Z,4.60
2022-09-19T17:57:29.071Z,5.13
2022-09-19T18:00:00.931Z,4.88
2022-09-19T18:02:47.915Z,4.05
2022-09-19T18:05:20.412Z,4.78
2022-09-19T18:07:55.224Z,5.25
2022-09-19T18:10:25.726Z,4.93
2022-09-19T18:12:55.983Z,4.97
2022-09-19T18:15:26.415Z,4.72
2022-09-19T18:17:55.754Z,4.70
2022-09-19T18:20:25.012Z,4.55
2022-09-19T18:22:54.893Z,4.20
2022-09-19T18:25:27.465Z,4.22
2022-09-19T18:27:55.973Z,4.40
2022-09-19T18:30:25.074Z,4.53
2022-09-19T18:32:53.954Z,4.45
2022-09-19T18:35:22.514Z,4.50
2022-09-19T18:37:51.062Z,6.78
2022-09-19T18:40:21.000Z,20.45
2022-09-19T18:42:49.633Z,17.73
2022-09-19T18:45:18.395Z,19.20
2022-09-19T18:47:48.020Z,19.13
2022-09-19T18:50:16.564Z,12.07
2022-09-19T18:52:45.463Z,12.07
2022-09-19T18:55:14.010Z,9.82
2022-09-19T18:57:44.001Z,9.90
2022-09-19T19:00:13.952Z,8.82
2022-09-19T19:02:42.510Z,8.75
2022-09-19T19:05:11.205Z,8.73
2022-09-19T19:07:40.586Z,7.93
2022-09-19T19:10:10.073Z,8.15
2022-09-19T19:12:45.667Z,7.60
2022-09-19T19:15:18.575Z,7.55
2022-09-19T19:17:48.211Z,7.53
2022-09-19T19:20:16.995Z,7.30
2022-09-19T19:22:48.201Z,7.53
2022-09-19T19:25:17.092Z,6.47
2022-09-19T19:27:49.916Z,6.65
2022-09-19T19:30:20.571Z,6.75
2022-09-19T19:32:48.965Z,6.70
2022-09-19T19:35:19.315Z,6.78
2022-09-19T19:37:48.075Z,6.78
2022-09-19T19:40:16.656Z,6.63
2022-09-19T19:42:45.114Z,6.57
2022-09-19T19:45:13.830Z,6.88
2022-09-19T19:47:44.378Z,6.07
2022-09-19T19:50:12.735Z,6.65
2022-09-19T19:52:41.214Z,6.55
2022-09-19T19:55:12.781Z,6.90
2022-09-19T19:57:41.773Z,6.43
2022-09-19T20:00:12.272Z,6.30
2022-09-19T20:02:40.685Z,6.35
2022-09-19T20:05:10.952Z,7.40
2022-09-19T20:07:39.381Z,6.45
2022-09-19T20:10:10.204Z,5.65
2022-09-19T20:12:38.619Z,5.90
2022-09-19T20:15:08.154Z,5.50
2022-09-19T20:17:36.556Z,5.82
2022-09-19T20:20:05.320Z,5.88
2022-09-19T20:22:35.655Z,6.60
2022-09-19T20:25:04.898Z,5.90
2022-09-19T20:27:35.760Z,6.30
2022-09-19T20:30:05.080Z,6.03
2022-09-19T20:32:33.603Z,6.15
2022-09-19T20:35:02.195Z,6.25
2022-09-19T20:37:31.298Z,6.00
2022-09-19T20:40:02.238Z,6.20
2022-09-19T20:42:30.738Z,6.10
2022-09-19T20:44:59.182Z,5.88
2022-09-19T20:47:27.778Z,5.75
2022-09-19T20:49:57.050Z,6.50
2022-09-19T20:52:25.703Z,5.72
2022-09-19T20:54:54.845Z,6.57
2022-09-19T20:57:24.816Z,5.70
2022-09-19T20:59:53.228Z,5.07
2022-09-19T21:02:21.682Z,5.22
2022-09-19T21:04:50.092Z,5.45
2022-09-19T21:07:20.377Z,5.50
2022-09-19T21:09:48.766Z,5.00
2022-09-19T21:12:42.382Z,5.22
2022-09-19T21:15:09.075Z,5.28
2022-09-19T21:17:37.441Z,5.53
2022-09-19T21:20:06.721Z,5.28
2022-09-19T21:22:35.182Z,5.30
2022-09-19T21:25:03.903Z,5.13
2022-09-19T21:27:32.395Z,5.50
2022-09-19T21:30:00.760Z,4.82
2022-09-19T21:32:30.517Z,5.40
2022-09-19T21:34:58.883Z,5.07
2022-09-19T21:37:27.338Z,5.47
2022-09-19T21:39:55.816Z,5.53
2022-09-19T21:42:25.750Z,5.43
2022-09-19T21:44:54.169Z,5.68
2022-09-19T21:47:22.620Z,5.60
2022-09-19T21:49:52.510Z,5.60
2022-09-19T21:52:20.901Z,5.47
2022-09-19T21:54:49.322Z,4.85
2022-09-19T21:57:17.710Z,5.68
2022-09-19T21:59:46.135Z,4.57
2022-09-19T22:02:14.625Z,5.40
2022-09-19T22:04:43.054Z,5.47
2022-09-19T22:07:12.840Z,5.25
2022-09-19T22:09:41.295Z,5.45
2022-09-19T22:12:09.749Z,4.95
2022-09-19T22:14:38.356Z,5.60
2022-09-19T22:17:07.204Z,5.28
2022-09-19T22:19:35.668Z,4.93
2022-09-19T22:22:04.093Z,5.32
2022-09-19T22:24:33.790Z,5.28
2022-09-19T22:27:02.134Z,4.88
2022-09-19T22:29:30.465Z,5.13
2022-09-19T22:31:58.963Z,5.10
2022-09-19T22:34:27.453Z,4.93
2022-09-19T22:36:55.885Z,4.80
2022-09-19T22:39:24.400Z,5.25
2022-09-19T22:41:54.215Z,5.15
2022-09-19T22:44:22.576Z,4.63
2022-09-19T22:46:50.993Z,5.05
2022-09-19T22:49:19.384Z,5.03
2022-09-19T22:51:47.833Z,4.63
2022-09-19T22:54:16.383Z,4.93
2022-09-19T22:56:44.753Z,4.88
2022-09-19T22:59:14.519Z,4.70
2022-09-19T23:01:43.266Z,5.15
2022-09-19T23:04:12.197Z,4.68
2022-09-19T23:06:41.506Z,4.90
2022-09-19T23:09:13.463Z,4.68
2022-09-19T23:11:42.464Z,4.63
2022-09-19T23:14:15.274Z,4.90
2022-09-19T23:16:44.763Z,4.93
2022-09-19T23:19:14.321Z,4.90
2022-09-19T23:21:46.065Z,4.45
2022-09-19T23:24:16.508Z,4.88
2022-09-19T23:26:45.039Z,4.85
2022-09-19T23:29:14.829Z,4.65
2022-09-19T23:31:43.631Z,4.72
2022-09-19T23:34:12.306Z,4.70
2022-09-19T23:36:40.747Z,4.20
2022-09-19T23:39:10.591Z,4.20
2022-09-19T23:41:39.162Z,4.47
2022-09-19T23:44:07.764Z,4.43
2022-09-19T23:46:38.320Z,4.60
2022-09-19T23:49:06.813Z,4.60
2022-09-19T23:51:36.160Z,4.70
2022-09-19T23:54:04.840Z,3.92
2022-09-19T23:56:33.629Z,4.22
2022-09-19T23:59:03.264Z,4.20
